Time;durP1;ratioP1;P1;durP2;ratioP2;P2;SDS_P1;SDS_P2;PMS_P1;PMS_P2;Temp;Humidity;BMP_temperature;BMP_pressure;BME280_temperature;BME280_humidity;BME280_pressure;Samples;Min_cycle;Max_cycle;Signal;HPM_P1;HPM_P2
2023/02/28 00:00:24;;;;;;;25.15;13.25;;;;;;;6.61;79.20;95264.13;5033703;28;20061;-73
2023/02/28 00:02:49;;;;;;;22.25;13.13;;;;;;;6.55;79.10;95249.84;5049744;28;20388;-73
2023/02/28 00:05:17;;;;;;;25.23;12.80;;;;;;;6.58;78.28;95249.66;5017046;28;20147;-75
2023/02/28 00:07:42;;;;;;;21.63;12.82;;;;;;;6.60;78.63;95265.91;5016794;28;20562;-74
2023/02/28 00:10:10;;;;;;;20.17;12.13;;;;;;;6.32;78.28;95209.09;5049742;28;20158;-74
2023/02/28 00:12:36;;;;;;;21.40;13.70;;;;;;;6.56;79.16;95272.16;5033188;28;20032;-74
2023/02/28 00:15:02;;;;;;;21.85;12.95;;;;;;;6.55;79.25;95272.25;5033228;28;20075;-74
2023/02/28 00:17:27;;;;;;;23.63;14.18;;;;;;;6.43;79.61;95268.63;5033033;28;20471;-74
2023/02/28 00:19:53;;;;;;;22.63;12.52;;;;;;;6.39;79.57;95243.94;5033211;28;20048;-73
2023/02/28 00:22:19;;;;;;;23.95;13.55;;;;;;;6.55;79.19;95262.75;5032900;28;20029;-74
2023/02/28 00:24:45;;;;;;;24.05;13.23;;;;;;;6.31;79.53;95251.31;5032266;28;20487;-74
2023/02/28 00:27:11;;;;;;;25.73;14.73;;;;;;;6.42;79.52;95264.41;5032996;28;20067;-73
2023/02/28 00:29:36;;;;;;;26.98;15.60;;;;;;;6.36;79.98;95269.94;5033270;28;20036;-75
2023/02/28 00:32:02;;;;;;;24.63;15.90;;;;;;;6.33;80.40;95281.25;5049536;28;20027;-74
2023/02/28 00:34:27;;;;;;;24.30;15.18;;;;;;;6.37;80.35;95277.56;5049618;28;20025;-74
2023/02/28 00:36:53;;;;;;;30.08;15.27;;;;;;;6.25;80.23;95255.91;5049489;28;20740;-74
2023/02/28 00:39:18;;;;;;;28.75;17.55;;;;;;;6.54;79.72;95268.81;5049761;28;20029;-74
2023/02/28 00:41:44;;;;;;;32.60;18.75;;;;;;;6.27;80.06;95245.50;5032971;28;20041;-74
2023/02/28 00:44:09;;;;;;;26.70;15.18;;;;;;;6.09;80.82;95255.13;5016603;28;20029;-74
2023/02/28 00:46:35;;;;;;;29.48;16.38;;;;;;;6.19;81.03;95256.28;5032864;28;20044;-74
2023/02/28 00:49:00;;;;;;;26.55;15.88;;;;;;;6.13;81.38;95253.19;5049868;28;20041;-74
2023/02/28 00:51:25;;;;;;;30.27;13.95;;;;;;;6.20;80.66;95250.19;5050898;28;20029;-74
2023/02/28 00:53:51;;;;;;;20.85;12.98;;;;;;;6.17;80.60;95249.53;5032974;28;20033;-74
2023/02/28 00:56:17;;;;;;;21.77;12.70;;;;;;;6.15;80.47;95247.03;5032620;28;20060;-74
2023/02/28 00:58:42;;;;;;;21.48;12.55;;;;;;;5.99;80.53;95223.91;5049530;28;20167;-74
2023/02/28 01:01:08;;;;;;;21.38;13.25;;;;;;;6.26;80.43;95254.97;5049319;28;20407;-74
2023/02/28 01:03:33;;;;;;;22.63;12.40;;;;;;;6.19;80.03;95253.69;5049410;28;20426;-74
2023/02/28 01:05:59;;;;;;;23.77;12.20;;;;;;;6.10;80.29;95255.97;5032593;28;20071;-74
2023/02/28 01:08:25;;;;;;;21.08;12.73;;;;;;;6.11;80.20;95245.56;5032810;28;20031;-74
2023/02/28 01:10:51;;;;;;;20.52;12.50;;;;;;;5.89;79.70;95204.69;5032816;28;20029;-74
2023/02/28 01:13:17;;;;;;;21.65;12.82;;;;;;;6.17;80.16;95257.28;5049130;28;20044;-74
2023/02/28 01:15:45;;;;;;;22.10;13.35;;;;;;;6.15;79.78;95246.22;5032530;28;20510;-74
2023/02/28 01:18:11;;;;;;;24.20;13.55;;;;;;;6.19;79.49;95258.84;5033064;28;20033;-74
2023/02/28 01:20:37;;;;;;;19.88;12.57;;;;;;;6.06;80.13;95257.91;5050317;28;20727;-74
2023/02/28 01:23:03;;;;;;;22.80;12.80;;;;;;;6.09;80.11;95255.13;5032525;28;20044;-74
2023/02/28 01:25:28;;;;;;;20.17;12.32;;;;;;;6.10;80.01;95254.22;5032834;28;20033;-74
2023/02/28 01:27:54;;;;;;;20.02;12.80;;;;;;;6.04;79.50;95241.66;5049451;28;20037;-74
2023/02/28 01:30:19;;;;;;;24.55;13.60;;;;;;;5.96;79.27;95249.03;5049160;28;20041;-74
2023/02/28 01:32:45;;;;;;;24.02;13.07;;;;;;;5.83;79.83;95247.13;5016104;28;20110;-74
2023/02/28 01:35:10;;;;;;;25.23;13.95;;;;;;;5.77;79.98;95238.91;5032552;28;20037;-73
2023/02/28 01:37:35;;;;;;;26.98;15.10;;;;;;;5.88;79.96;95253.75;5035880;28;20033;-74
2023/02/28 01:40:01;;;;;;;24.27;14.85;;;;;;;5.85;80.17;95235.88;5053730;28;20473;-74
2023/02/28 01:42:27;;;;;;;26.35;15.32;;;;;;;5.67;80.38;95241.19;5035743;28;20032;-74
2023/02/28 01:44:55;;;;;;;26.10;14.38;;;;;;;5.78;80.32;95253.47;5035822;28;20174;-75
2023/02/28 01:47:21;;;;;;;23.27;13.98;;;;;;;5.79;80.14;95253.38;5053698;28;20509;-74
2023/02/28 01:49:47;;;;;;;22.10;13.98;;;;;;;5.60;80.11;95232.16;5035877;28;20116;-74
2023/02/28 01:52:17;;;;;;;22.20;13.13;;;;;;;5.77;79.37;95256.97;5035632;28;20063;-74
2023/02/28 01:54:44;;;;;;;19.23;12.45;;;;;;;5.81;79.17;95246.38;5036893;28;20029;-74
2023/02/28 01:57:12;;;;;;;21.02;12.15;;;;;;;5.74;79.28;95257.97;5035554;28;20049;-74
2023/02/28 01:59:49;;;;;;;22.90;14.07;;;;;;;5.63;79.12;95242.28;5052248;28;20119;-74
2023/02/28 02:02:16;;;;;;;23.90;13.48;;;;;;;5.74;78.95;95268.28;5052019;28;20034;-74
2023/02/28 02:05:01;;;;;;;24.27;13.23;;;;;;;5.75;78.75;95264.78;5035677;28;20033;-74
2023/02/28 02:07:26;;;;;;;24.08;13.98;;;;;;;5.71;77.85;95257.28;5035475;28;20094;-74
2023/02/28 02:10:06;;;;;;;19.73;11.25;;;;;;;5.61;78.37;95264.72;5035452;28;20041;-74
2023/02/28 02:12:40;;;;;;;17.83;11.10;;;;;;;5.52;79.05;95270.41;5052014;28;20078;-74
2023/02/28 02:15:11;;;;;;;19.58;11.38;;;;;;;5.60;78.95;95269.06;5053587;28;20041;-74
2023/02/28 02:17:39;;;;;;;18.23;11.68;;;;;;;5.55;79.20;95262.50;5035674;28;20495;-73
2023/02/28 02:20:34;;;;;;;18.05;11.90;;;;;;;5.50;79.42;95265.31;5035281;28;20127;-74
2023/02/28 02:23:18;;;;;;;15.00;10.23;;;;;;;5.52;78.89;95262.69;5038094;28;20029;-74
2023/02/28 02:25:59;;;;;;;17.13;11.30;;;;;;;5.45;78.88;95245.88;5052895;28;20041;-74
2023/02/28 02:28:53;;;;;;;17.45;10.82;;;;;;;5.30;78.88;95258.69;5035477;28;20079;-74
2023/02/28 02:31:40;;;;;;;17.58;12.68;;;;;;;5.20;79.00;95257.53;5052867;28;20028;-74
2023/02/28 02:34:26;;;;;;;19.08;13.23;;;;;;;5.17;78.72;95254.31;5053240;28;20033;-74
2023/02/28 02:36:53;;;;;;;17.42;11.30;;;;;;;5.18;78.48;95258.53;5051321;28;20029;-74
2023/02/28 02:39:50;;;;;;;20.02;12.32;;;;;;;5.06;78.45;95260.03;5051692;28;20025;-74
2023/02/28 02:42:21;;;;;;;18.45;10.40;;;;;;;5.03;78.55;95260.19;5040873;28;20044;-74
2023/02/28 02:44:49;;;;;;;21.65;11.35;;;;;;;4.83;78.45;95223.47;5035538;28;20033;-74
2023/02/28 02:47:17;;;;;;;16.30;9.32;;;;;;;4.80;78.19;95251.97;5050997;28;20029;-73
2023/02/28 02:49:48;;;;;;;14.07;8.57;;;;;;;4.82;77.47;95260.44;5035274;28;20041;-74
2023/02/28 02:52:15;;;;;;;17.48;9.77;;;;;;;4.66;77.44;95265.56;5034823;28;20029;-74
2023/02/28 02:54:41;;;;;;;21.08;11.77;;;;;;;4.56;78.46;95245.53;5034833;28;20037;-74
2023/02/28 02:57:24;;;;;;;22.92;13.60;;;;;;;4.41;80.17;95253.13;5034670;28;20051;-74
2023/02/28 02:59:49;;;;;;;20.83;11.80;;;;;;;4.57;80.83;95288.34;5034868;28;20035;-73
2023/02/28 03:02:15;;;;;;;21.90;12.55;;;;;;;4.44;82.91;95288.16;5034434;28;20028;-74
2023/02/28 03:04:43;;;;;;;27.50;12.57;;;;;;;4.35;83.37;95284.34;5034442;28;20044;-73
2023/02/28 03:07:08;;;;;;;25.38;13.27;;;;;;;4.41;84.32;95294.31;5034728;28;20048;-73
2023/02/28 03:09:35;;;;;;;22.23;11.65;;;;;;;4.58;84.24;95300.34;5034815;28;20045;-73
2023/02/28 03:12:01;;;;;;;22.60;11.55;;;;;;;4.51;83.78;95294.66;5051128;28;20032;-73
2023/02/28 03:14:46;;;;;;;21.13;11.15;;;;;;;4.56;84.23;95317.59;5017890;28;20032;-73
2023/02/28 03:17:30;;;;;;;22.75;11.93;;;;;;;4.51;84.81;95320.38;5051876;28;20044;-73
2023/02/28 03:20:36;;;;;;;23.83;12.10;;;;;;;4.56;85.04;95330.44;5050537;28;20060;-73
2023/02/28 03:23:10;;;;;;;22.33;12.25;;;;;;;4.62;84.97;95328.38;4995075;28;20560;-74
2023/02/28 03:25:56;;;;;;;23.15;12.18;;;;;;;4.72;84.92;95321.03;5034407;28;20056;-73
2023/02/28 03:28:42;;;;;;;25.83;11.65;;;;;;;4.70;84.99;95313.38;5050582;28;20025;-74
2023/02/28 03:31:19;;;;;;;22.05;11.93;;;;;;;4.82;84.88;95314.50;5050130;28;20077;-73
2023/02/28 03:33:55;;;;;;;23.25;12.70;;;;;;;4.90;84.51;95324.38;5050701;28;20106;-73
2023/02/28 03:36:24;;;;;;;20.38;10.73;;;;;;;4.75;84.22;95302.84;5035014;28;20041;-74
2023/02/28 03:38:56;;;;;;;24.40;13.48;;;;;;;4.92;82.93;95305.38;5034201;28;20058;-73
2023/02/28 03:41:38;;;;;;;20.88;11.32;;;;;;;4.97;82.64;95324.91;5033924;28;20033;-74
2023/02/28 03:44:07;;;;;;;18.27;10.55;;;;;;;5.00;82.43;95329.91;5035141;28;20040;-73
2023/02/28 03:46:36;;;;;;;15.88;8.85;;;;;;;4.91;82.02;95333.78;5033803;28;20033;-74
2023/02/28 03:49:23;;;;;;;17.08;9.20;;;;;;;4.94;80.87;95328.47;5034213;28;20483;-73
2023/02/28 03:51:49;;;;;;;16.88;9.43;;;;;;;4.54;80.94;95333.13;5051412;28;20483;-74
2023/02/28 03:54:20;;;;;;;15.57;8.55;;;;;;;4.68;81.08;95342.69;5017341;28;20187;-74
2023/02/28 03:56:53;;;;;;;18.27;9.70;;;;;;;4.64;81.30;95343.75;5033718;28;20049;-73
2023/02/28 03:59:28;;;;;;;19.83;10.93;;;;;;;4.68;81.91;95322.09;5033828;28;20029;-75
2023/02/28 04:01:54;;;;;;;17.67;9.35;;;;;;;4.78;81.36;95320.72;5017145;28;20056;-74
2023/02/28 04:04:20;;;;;;;66.05;30.98;;;;;;;4.87;81.62;95334.84;5017675;28;20068;-73
2023/02/28 04:06:45;;;;;;;64.10;25.88;;;;;;;4.73;82.00;95317.53;5033459;28;20057;-74
2023/02/28 04:09:12;;;;;;;29.85;14.43;;;;;;;4.65;81.41;95330.81;5033453;28;20056;-73
2023/02/28 04:11:45;;;;;;;23.20;13.57;;;;;;;4.65;82.13;95329.97;5033327;28;20032;-74
2023/02/28 04:14:11;;;;;;;23.90;12.35;;;;;;;4.61;82.00;95326.72;5016998;28;20036;-73
2023/02/28 04:16:38;;;;;;;20.80;11.10;;;;;;;4.37;82.75;95300.50;5033196;28;20419;-73
2023/02/28 04:19:04;;;;;;;22.52;12.35;;;;;;;4.63;82.85;95335.22;5049954;28;20029;-73
2023/02/28 04:21:50;;;;;;;25.52;14.18;;;;;;;4.72;83.04;95339.06;5016667;28;20037;-73
2023/02/28 04:24:18;;;;;;;30.45;15.38;;;;;;;4.74;83.18;95329.50;5049433;28;20041;-74
2023/02/28 04:26:45;;;;;;;33.17;17.50;;;;;;;4.78;83.20;95330.19;5033068;28;20036;-73
2023/02/28 04:29:11;;;;;;;21.80;12.27;;;;;;;4.69;82.89;95328.91;5049883;28;20418;-73
2023/02/28 04:31:37;;;;;;;21.15;11.55;;;;;;;4.81;82.34;95330.00;5033059;28;20029;-73
2023/02/28 04:34:03;;;;;;;23.00;10.77;;;;;;;4.29;81.83;95310.38;5033179;28;20079;-73
2023/02/28 04:36:28;;;;;;;18.42;9.05;;;;;;;4.31;81.93;95323.97;5033039;28;20033;-73
2023/02/28 04:38:54;;;;;;;16.17;9.63;;;;;;;4.17;81.77;95305.81;5016781;28;20045;-73
2023/02/28 04:41:19;;;;;;;16.55;10.32;;;;;;;4.20;81.59;95310.81;5049381;28;20487;-74
2023/02/28 04:43:45;;;;;;;18.77;10.40;;;;;;;4.34;81.70;95344.38;5032828;28;20056;-73
2023/02/28 04:46:11;;;;;;;17.65;10.20;;;;;;;4.32;81.80;95335.94;5032838;28;20048;-74
2023/02/28 04:48:37;;;;;;;22.58;12.80;;;;;;;4.37;81.71;95338.25;5049556;28;20033;-73
2023/02/28 04:51:10;;;;;;;18.75;11.32;;;;;;;4.48;81.83;95341.13;5032892;28;20132;-73
2023/02/28 04:53:37;;;;;;;22.13;12.93;;;;;;;4.56;81.91;95351.84;5032898;28;20479;-74
2023/02/28 04:56:02;;;;;;;30.30;18.85;;;;;;;4.45;82.36;95329.25;5033022;28;20032;-73
2023/02/28 04:58:28;;;;;;;21.90;12.82;;;;;;;4.65;82.02;95355.69;5016440;28;20025;-73
2023/02/28 05:00:53;;;;;;;23.40;12.30;;;;;;;4.68;82.26;95358.13;5032696;28;20580;-74
2023/02/28 05:03:20;;;;;;;22.13;12.45;;;;;;;4.77;81.97;95362.81;5032893;28;20407;-74
2023/02/28 05:05:46;;;;;;;26.48;13.88;;;;;;;4.73;82.03;95355.31;5016521;28;20529;-73
2023/02/28 05:08:11;;;;;;;23.13;11.77;;;;;;;4.84;81.73;95359.00;5032963;28;20033;-73
2023/02/28 05:10:37;;;;;;;21.30;11.98;;;;;;;4.89;80.67;95353.63;5033457;28;20025;-73
2023/02/28 05:13:02;;;;;;;21.13;11.73;;;;;;;4.85;81.32;95360.69;5051716;28;20029;-73
2023/02/28 05:15:28;;;;;;;24.35;13.00;;;;;;;4.89;81.85;95361.34;5034567;28;20068;-73
2023/02/28 05:17:53;;;;;;;27.58;13.57;;;;;;;4.84;81.58;95360.75;5034237;28;20032;-74
2023/02/28 05:20:20;;;;;;;24.50;13.20;;;;;;;4.73;82.50;95366.44;5035138;28;20095;-73
2023/02/28 05:22:46;;;;;;;20.65;12.00;;;;;;;4.73;81.88;95361.28;5053133;28;20033;-73
2023/02/28 05:25:14;;;;;;;22.77;12.05;;;;;;;4.84;82.25;95371.03;5035517;28;20041;-73
2023/02/28 05:27:40;;;;;;;21.75;12.20;;;;;;;4.85;82.16;95370.16;5035818;28;20021;-74
2023/02/28 05:30:06;;;;;;;24.58;12.45;;;;;;;4.84;82.14;95360.75;5019544;28;20025;-74
2023/02/28 05:32:32;;;;;;;21.67;11.75;;;;;;;4.59;81.68;95307.13;5019530;28;20033;-74
2023/02/28 05:34:57;;;;;;;18.20;10.77;;;;;;;5.11;81.52;95381.66;5052925;28;20029;-73
2023/02/28 05:37:23;;;;;;;21.27;12.57;;;;;;;5.00;81.60;95355.66;5052709;28;20035;-73
2023/02/28 05:39:48;;;;;;;25.73;16.30;;;;;;;5.23;81.71;95393.06;5019056;28;20044;-73
2023/02/28 05:42:13;;;;;;;34.30;20.33;;;;;;;5.12;81.87;95373.00;5052285;28;20036;-74
2023/02/28 05:44:39;;;;;;;29.27;16.95;;;;;;;5.23;81.89;95388.75;5019394;28;20029;-73
2023/02/28 05:47:04;;;;;;;27.02;17.20;;;;;;;5.00;81.86;95365.94;5035792;28;20380;-74
2023/02/28 05:49:30;;;;;;;31.55;16.38;;;;;;;5.25;82.14;95397.22;5054164;28;20051;-74
2023/02/28 05:51:55;;;;;;;28.85;15.85;;;;;;;5.15;82.19;95372.84;5035674;28;20029;-73
2023/02/28 05:54:21;;;;;;;26.45;16.40;;;;;;;5.36;81.97;95400.06;5035757;28;20060;-73
2023/02/28 05:56:46;;;;;;;29.13;17.33;;;;;;;5.08;82.36;95387.81;5052181;28;20053;-73
2023/02/28 05:59:12;;;;;;;34.20;17.60;;;;;;;5.23;82.47;95393.06;5053900;28;20033;-74
2023/02/28 06:01:39;;;;;;;30.20;17.05;;;;;;;5.36;82.30;95402.66;5035496;28;20037;-73
2023/02/28 06:04:07;;;;;;;31.50;16.92;;;;;;;5.39;81.78;95393.91;5052483;28;20025;-73
2023/02/28 06:06:34;;;;;;;28.25;16.40;;;;;;;5.44;81.50;95388.53;5035666;28;20485;-73
2023/02/28 06:08:59;;;;;;;29.23;17.20;;;;;;;5.60;81.38;95400.50;5019584;28;20031;-73
2023/02/28 06:11:26;;;;;;;32.03;18.45;;;;;;;5.68;81.28;95401.81;5018833;28;20064;-73
2023/02/28 06:13:56;;;;;;;31.10;17.55;;;;;;;5.73;81.42;95394.69;5052254;28;20023;-73
2023/02/28 06:16:21;;;;;;;43.90;26.08;;;;;;;5.82;80.95;95387.28;5052049;28;20056;-74
2023/02/28 06:18:47;;;;;;;40.53;21.98;;;;;;;5.76;81.06;95379.03;5052285;28;20430;-74
2023/02/28 06:21:12;;;;;;;39.00;23.38;;;;;;;5.79;81.08;95374.56;5052990;28;20442;-73
2023/02/28 06:23:38;;;;;;;36.00;20.52;;;;;;;5.65;81.94;95371.88;5017836;28;20032;-74
2023/02/28 06:26:04;;;;;;;31.92;19.58;;;;;;;5.88;81.17;95390.41;5051775;28;20044;-74
2023/02/28 06:28:29;;;;;;;37.20;20.70;;;;;;;5.87;81.33;95393.94;5051737;28;20407;-73
2023/02/28 06:30:54;;;;;;;34.78;20.15;;;;;;;5.85;81.64;95383.72;5035149;28;20037;-74
2023/02/28 06:33:20;;;;;;;52.22;28.20;;;;;;;5.76;82.44;95410.81;5052207;28;20028;-73
2023/02/28 06:35:55;;;;;;;58.85;30.42;;;;;;;5.99;82.07;95406.16;5034954;28;20457;-73
2023/02/28 06:38:20;;;;;;;57.33;31.70;;;;;;;5.99;81.88;95396.69;5018635;28;20117;-73
2023/02/28 06:40:53;;;;;;;59.83;39.00;;;;;;;5.98;81.06;95383.88;5052603;28;20036;-73
2023/02/28 06:43:18;;;;;;;52.40;31.73;;;;;;;6.10;81.33;95403.00;5035038;28;20025;-73
2023/02/28 06:45:44;;;;;;;62.45;32.65;;;;;;;6.06;81.39;95396.34;5051380;28;20060;-73
2023/02/28 06:48:10;;;;;;;51.67;28.75;;;;;;;6.22;81.17;95402.31;5034717;28;20036;-73
2023/02/28 06:50:36;;;;;;;46.08;25.67;;;;;;;6.28;81.31;95406.31;5051376;28;20525;-74
2023/02/28 06:53:01;;;;;;;42.80;24.80;;;;;;;6.18;81.55;95380.19;5051319;28;20037;-74
2023/02/28 06:55:26;;;;;;;39.25;23.15;;;;;;;6.41;81.14;95389.22;5034662;28;20074;-74
2023/02/28 06:57:52;;;;;;;60.20;39.70;;;;;;;6.45;81.67;95403.59;5017727;28;20110;-74
2023/02/28 07:00:18;;;;;;;48.55;30.40;;;;;;;6.58;81.84;95403.72;5034474;28;20037;-73
2023/02/28 07:02:43;;;;;;;39.88;25.02;;;;;;;6.62;81.45;95411.19;5050981;28;20029;-73
2023/02/28 07:05:09;;;;;;;33.50;20.83;;;;;;;6.64;81.57;95419.69;5034482;28;20028;-73
2023/02/28 07:07:36;;;;;;;33.00;19.92;;;;;;;6.53;81.28;95388.50;5050813;28;20032;-73
2023/02/28 07:10:01;;;;;;;31.95;19.20;;;;;;;6.67;81.07;95404.00;5052110;28;20033;-74
2023/02/28 07:12:27;;;;;;;37.08;22.85;;;;;;;6.86;80.92;95410.69;5033224;28;20040;-73
2023/02/28 07:14:52;;;;;;;55.13;32.50;;;;;;;6.90;80.82;95409.59;5050562;28;20419;-73
2023/02/28 07:17:17;;;;;;;42.75;26.13;;;;;;;6.87;80.65;95389.94;5050718;28;20025;-74
2023/02/28 07:19:43;;;;;;;40.95;25.35;;;;;;;7.02;80.17;95395.09;5050667;28;20025;-74
2023/02/28 07:22:08;;;;;;;36.60;22.58;;;;;;;7.15;80.63;95401.22;5050536;28;20086;-73
2023/02/28 07:24:34;;;;;;;24.33;13.35;;;;;;;6.85;80.90;95362.53;5052384;28;20037;-74
2023/02/28 07:27:00;;;;;;;24.55;14.63;;;;;;;7.16;81.76;95406.31;5050532;28;20491;-74
2023/02/28 07:29:26;;;;;;;27.38;14.88;;;;;;;7.28;82.06;95414.25;5034332;28;20029;-74
2023/02/28 07:31:52;;;;;;;34.03;19.05;;;;;;;7.56;81.79;95414.22;5034039;28;20029;-74
2023/02/28 07:34:19;;;;;;;35.85;18.92;;;;;;;7.33;81.85;95386.38;5050653;28;20033;-74
2023/02/28 07:36:44;;;;;;;23.83;15.20;;;;;;;7.59;81.36;95393.34;5050571;28;20040;-74
2023/02/28 07:39:10;;;;;;;28.95;16.58;;;;;;;7.71;81.65;95391.72;5050361;28;20029;-73
2023/02/28 07:41:39;;;;;;;30.60;17.42;;;;;;;7.80;81.04;95378.25;5050221;28;20037;-73
2023/02/28 07:44:04;;;;;;;30.80;17.63;;;;;;;7.77;81.37;95398.28;5050610;28;20170;-74
2023/02/28 07:46:34;;;;;;;28.13;15.50;;;;;;;7.98;80.75;95409.88;5033824;28;20040;-73
2023/02/28 07:49:00;;;;;;;27.92;13.70;;;;;;;7.80;80.09;95398.09;5050542;28;20047;-74
2023/02/28 07:51:26;;;;;;;34.58;17.73;;;;;;;8.07;80.22;95395.53;5033793;28;20037;-74
2023/02/28 07:53:51;;;;;;;31.30;17.80;;;;;;;8.28;80.19;95395.91;5017337;28;20032;-74
2023/02/28 07:56:17;;;;;;;30.38;17.63;;;;;;;8.32;80.28;95387.00;5033600;28;20077;-74
2023/02/28 07:58:42;;;;;;;26.27;13.80;;;;;;;8.43;78.66;95376.81;5050367;28;20029;-74
2023/02/28 08:01:09;;;;;;;27.45;14.02;;;;;;;8.53;79.01;95378.81;5033519;28;20534;-74
2023/02/28 08:03:35;;;;;;;25.40;15.00;;;;;;;8.70;79.29;95396.66;5050136;28;20037;-74
2023/02/28 08:06:02;;;;;;;27.98;14.50;;;;;;;8.98;78.88;95397.41;5033514;28;20058;-74
2023/02/28 08:08:31;;;;;;;27.17;15.18;;;;;;;9.25;77.82;95394.69;5049951;28;20033;-74
2023/02/28 08:10:59;;;;;;;30.05;15.85;;;;;;;9.31;77.14;95387.34;5033943;28;20033;-74
2023/02/28 08:13:25;;;;;;;20.33;12.65;;;;;;;9.36;75.56;95403.44;5033893;28;20520;-74
2023/02/28 08:15:50;;;;;;;29.40;15.25;;;;;;;9.54;76.60;95403.91;5051504;28;20025;-74
2023/02/28 08:18:15;;;;;;;19.75;9.90;;;;;;;9.63;72.79;95399.84;5050069;28;20029;-74
2023/02/28 08:20:41;;;;;;;22.92;13.25;;;;;;;9.76;73.24;95398.06;5051059;28;20037;-74
2023/02/28 08:23:06;;;;;;;21.90;13.18;;;;;;;9.89;71.85;95394.59;5033569;28;20059;-74
2023/02/28 08:25:32;;;;;;;23.92;12.32;;;;;;;10.19;71.49;95396.75;5016911;28;20075;-74
2023/02/28 08:27:57;;;;;;;21.60;14.73;;;;;;;11.25;69.66;95391.53;5032974;28;20399;-74
2023/02/28 08:30:23;;;;;;;24.83;13.88;;;;;;;12.32;64.78;95375.34;5051270;28;20414;-74
2023/02/28 08:32:48;;;;;;;25.77;14.30;;;;;;;11.69;66.75;95395.09;5016675;28;20048;-74
2023/02/28 08:35:14;;;;;;;21.35;13.32;;;;;;;11.13;68.02;95372.50;5049777;28;20093;-74
2023/02/28 08:37:39;;;;;;;17.73;10.98;;;;;;;11.18;66.69;95397.22;5049552;28;20411;-74
2023/02/28 08:40:05;;;;;;;22.83;11.48;;;;;;;10.65;68.40;95407.25;5050941;28;20040;-74
2023/02/28 08:42:32;;;;;;;18.45;9.98;;;;;;;10.74;67.43;95410.94;5032954;28;20501;-74
2023/02/28 08:44:57;;;;;;;13.68;7.28;;;;;;;9.87;66.79;95314.25;5049838;28;20483;-73
2023/02/28 08:47:23;;;;;;;13.23;6.97;;;;;;;10.39;66.40;95403.13;5036573;28;20028;-74
2023/02/28 08:49:48;;;;;;;16.33;7.40;;;;;;;10.19;65.62;95395.00;5053940;28;20439;-74
2023/02/28 08:52:14;;;;;;;16.25;7.72;;;;;;;10.00;67.02;95392.91;5053746;28;20033;-74
2023/02/28 08:54:39;;;;;;;17.13;7.22;;;;;;;9.86;67.10;95408.59;5053652;28;20044;-74
2023/02/28 08:57:05;;;;;;;15.40;7.32;;;;;;;9.82;67.92;95413.19;5053911;28;20057;-74
2023/02/28 08:59:30;;;;;;;14.93;7.18;;;;;;;10.10;68.54;95413.81;5055343;28;20021;-74
2023/02/28 09:01:56;;;;;;;15.98;7.80;;;;;;;10.00;67.95;95379.94;5053396;28;20037;-74
2023/02/28 09:04:22;;;;;;;17.48;7.78;;;;;;;10.00;67.80;95399.84;5054397;28;20060;-74
2023/02/28 09:06:48;;;;;;;17.30;7.90;;;;;;;10.02;67.60;95423.94;5053613;28;20411;-74
2023/02/28 09:09:14;;;;;;;15.98;7.20;;;;;;;9.70;66.69;95395.91;5054096;28;20071;-74
2023/02/28 09:11:40;;;;;;;17.35;9.15;;;;;;;9.88;67.32;95400.72;5037072;28;20060;-75
2023/02/28 09:14:05;;;;;;;15.07;8.10;;;;;;;10.03;67.42;95404.84;5036870;28;20029;-74
2023/02/28 09:16:31;;;;;;;14.02;7.47;;;;;;;9.98;67.90;95412.13;5053092;28;20033;-74
2023/02/28 09:18:57;;;;;;;17.10;7.97;;;;;;;10.07;67.37;95411.47;5036495;28;20491;-74
2023/02/28 09:21:22;;;;;;;13.23;8.68;;;;;;;10.09;68.63;95381.03;5053169;28;20086;-74
2023/02/28 09:23:49;;;;;;;19.63;7.28;;;;;;;10.29;68.62;95398.63;5036325;28;20037;-75
2023/02/28 09:26:16;;;;;;;16.05;8.80;;;;;;;10.54;66.94;95391.63;5036573;28;20451;-74
2023/02/28 09:28:41;;;;;;;16.13;7.40;;;;;;;10.80;66.63;95404.47;5036682;28;20067;-74
2023/02/28 09:31:14;;;;;;;16.40;6.75;;;;;;;10.80;65.21;95388.88;5036404;28;20056;-75
2023/02/28 09:33:39;;;;;;;14.02;7.18;;;;;;;10.47;65.77;95403.41;5052838;28;20036;-74
2023/02/28 09:36:05;;;;;;;14.85;7.50;;;;;;;10.60;65.60;95409.38;5052863;28;20029;-75
2023/02/28 09:38:31;;;;;;;17.80;6.90;;;;;;;10.44;66.14;95393.25;5052997;28;20033;-74
2023/02/28 09:40:59;;;;;;;17.92;8.25;;;;;;;10.31;65.55;95397.66;5035961;28;20025;-74
2023/02/28 09:43:26;;;;;;;14.32;7.10;;;;;;;10.22;65.58;95388.75;5036278;28;20041;-74
2023/02/28 09:46:00;;;;;;;16.48;7.90;;;;;;;9.89;66.50;95389.38;5052673;28;20036;-74
2023/02/28 09:48:29;;;;;;;15.95;6.85;;;;;;;9.71;67.36;95388.94;5020276;28;20127;-74
2023/02/28 09:51:14;;;;;;;16.52;7.60;;;;;;;9.76;67.50;95369.50;5035987;28;20029;-74
2023/02/28 09:53:39;;;;;;;15.32;7.45;;;;;;;9.80;67.07;95363.16;5021375;28;20041;-74
2023/02/28 09:56:09;;;;;;;17.33;6.55;;;;;;;10.04;67.34;95383.13;5053382;28;20561;-74
2023/02/28 09:58:42;;;;;;;19.58;7.75;;;;;;;10.05;66.19;95379.56;5035731;28;20521;-74
2023/02/28 10:01:30;;;;;;;18.67;6.90;;;;;;;9.59;67.24;95382.84;5019471;28;20029;-74
2023/02/28 10:03:57;;;;;;;20.30;8.43;;;;;;;9.74;68.26;95399.09;5038325;28;20136;-74
2023/02/28 10:06:26;;;;;;;21.33;6.88;;;;;;;9.84;67.04;95394.94;5019177;28;20027;-74
2023/02/28 10:09:09;;;;;;;16.70;7.13;;;;;;;10.03;66.41;95386.66;5035946;28;20033;-74
2023/02/28 10:11:34;;;;;;;22.60;6.63;;;;;;;10.13;66.61;95381.63;5053364;28;20555;-74
2023/02/28 10:14:24;;;;;;;17.35;7.03;;;;;;;10.41;65.81;95383.09;5019257;28;20120;-74
2023/02/28 10:17:17;;;;;;;20.23;6.93;;;;;;;10.44;65.03;95388.88;5027537;28;20047;-74
2023/02/28 10:20:07;;;;;;;16.25;6.43;;;;;;;10.52;64.80;95378.75;5052059;28;20033;-74
2023/02/28 10:22:34;;;;;;;15.07;7.27;;;;;;;10.72;64.47;95374.66;5052027;28;20044;-75
2023/02/28 10:25:02;;;;;;;15.43;7.38;;;;;;;10.82;63.82;95372.22;5051644;28;20276;-74
2023/02/28 10:27:31;;;;;;;15.27;6.43;;;;;;;11.05;63.96;95370.50;5051631;28;20029;-74
2023/02/28 10:29:59;;;;;;;18.05;6.72;;;;;;;10.86;63.71;95363.25;5035075;28;20027;-75
2023/02/28 10:32:30;;;;;;;16.33;7.25;;;;;;;10.80;63.81;95362.88;5018487;28;20026;-74
2023/02/28 10:35:20;;;;;;;18.90;6.93;;;;;;;10.94;62.84;95357.47;5018484;28;20040;-74
2023/02/28 10:37:50;;;;;;;11.43;6.43;;;;;;;11.08;62.56;95356.44;5051207;28;20075;-74
2023/02/28 10:40:22;;;;;;;14.52;6.63;;;;;;;10.70;63.88;95353.19;5051264;28;20025;-75
2023/02/28 10:43:13;;;;;;;17.08;6.88;;;;;;;10.94;63.29;95345.31;5052541;28;20064;-74
2023/02/28 10:45:39;;;;;;;11.27;6.40;;;;;;;10.81;62.99;95343.75;5050324;28;20037;-74
2023/02/28 10:48:08;;;;;;;21.85;7.75;;;;;;;10.45;63.84;95341.19;5018173;28;20494;-74
2023/02/28 10:50:41;;;;;;;15.88;7.25;;;;;;;10.47;64.78;95338.47;5051337;28;20430;-74
2023/02/28 10:53:19;;;;;;;16.95;7.40;;;;;;;10.27;65.13;95340.75;5052552;28;20037;-74
2023/02/28 10:55:44;;;;;;;16.88;7.75;;;;;;;10.60;64.60;95312.41;5050757;28;20461;-74
2023/02/28 10:58:24;;;;;;;20.00;6.95;;;;;;;10.45;64.53;95298.81;5034526;28;20033;-74
2023/02/28 11:00:50;;;;;;;21.77;6.72;;;;;;;10.54;63.75;95320.69;5050870;28;20032;-74
2023/02/28 11:03:30;;;;;;;18.35;7.43;;;;;;;10.47;63.31;95302.97;5017916;28;20040;-74
2023/02/28 11:05:55;;;;;;;17.38;7.90;;;;;;;10.53;63.83;95309.47;5034847;28;20059;-74
2023/02/28 11:08:21;;;;;;;19.33;7.50;;;;;;;10.59;63.39;95326.38;5033698;28;20073;-74
2023/02/28 11:10:56;;;;;;;21.08;8.13;;;;;;;10.36;65.08;95312.47;5034182;28;20029;-74
2023/02/28 11:13:33;;;;;;;15.80;7.53;;;;;;;10.36;63.67;95281.31;5035646;28;20040;-74
2023/02/28 11:16:00;;;;;;;16.00;7.60;;;;;;;10.67;63.51;95313.59;5050737;28;20107;-74
2023/02/28 11:18:48;;;;;;;20.27;8.77;;;;;;;10.69;63.90;95312.53;5034273;28;20040;-74
2023/02/28 11:21:34;;;;;;;17.58;7.88;;;;;;;10.82;63.19;95315.06;5050531;28;20112;-74
2023/02/28 11:24:06;;;;;;;21.02;8.27;;;;;;;10.62;63.08;95316.56;5050742;28;20037;-74
2023/02/28 11:26:45;;;;;;;15.88;7.93;;;;;;;10.83;63.02;95315.88;5051646;28;20017;-74
2023/02/28 11:29:24;;;;;;;16.17;8.18;;;;;;;10.76;62.69;95314.69;5050645;28;20048;-74
2023/02/28 11:32:08;;;;;;;14.73;8.20;;;;;;;10.88;62.22;95319.78;5050342;28;20099;-74
2023/02/28 11:34:34;;;;;;;19.15;8.82;;;;;;;10.79;62.86;95314.47;5051474;28;20068;-75